sensor_id;sensor_type;location;lat;lon;timestamp;temperature;humidity
57719;DHT22;43561;50.090;18.522;2023-07-08T00:03:45;14.50;99.90
57719;DHT22;43561;50.090;18.522;2023-07-08T00:13:47;14.50;99.90
57719;DHT22;43561;50.090;18.522;2023-07-08T00:23:50;14.20;99.90
57719;DHT22;43561;50.090;18.522;2023-07-08T00:33:54;14.10;99.90
57719;DHT22;43561;50.090;18.522;2023-07-08T00:43:59;14.10;99.90
57719;DHT22;43561;50.090;18.522;2023-07-08T00:54:01;13.90;99.90
57719;DHT22;43561;50.090;18.522;2023-07-08T01:04:11;13.80;99.90
57719;DHT22;43561;50.090;18.522;2023-07-08T01:14:15;13.70;99.90
57719;DHT22;43561;50.090;18.522;2023-07-08T01:24:19;13.80;99.90
57719;DHT22;43561;50.090;18.522;2023-07-08T01:34:22;13.00;99.90
57719;DHT22;43561;50.090;18.522;2023-07-08T01:44:33;13.20;99.90
57719;DHT22;43561;50.090;18.522;2023-07-08T01:54:36;13.30;99.90
57719;DHT22;43561;50.090;18.522;2023-07-08T02:04:39;13.20;99.90
57719;DHT22;43561;50.090;18.522;2023-07-08T02:14:41;13.20;99.90
57719;DHT22;43561;50.090;18.522;2023-07-08T02:24:43;13.20;99.90
57719;DHT22;43561;50.090;18.522;2023-07-08T02:34:46;13.10;99.90
57719;DHT22;43561;50.090;18.522;2023-07-08T02:44:48;13.00;99.90
57719;DHT22;43561;50.090;18.522;2023-07-08T02:54:50;13.00;99.90
57719;DHT22;43561;50.090;18.522;2023-07-08T03:04:52;13.00;99.90
57719;DHT22;43561;50.090;18.522;2023-07-08T03:14:55;12.90;99.90
57719;DHT22;43561;50.090;18.522;2023-07-08T03:24:57;12.70;99.90
57719;DHT22;43561;50.090;18.522;2023-07-08T03:34:59;12.90;99.90
57719;DHT22;43561;50.090;18.522;2023-07-08T03:45:01;13.50;99.90
57719;DHT22;43561;50.090;18.522;2023-07-08T03:55:04;14.20;99.90
57719;DHT22;43561;50.090;18.522;2023-07-08T04:05:06;15.40;99.90
57719;DHT22;43561;50.090;18.522;2023-07-08T04:15:10;17.00;99.90
57719;DHT22;43561;50.090;18.522;2023-07-08T04:25:13;17.60;99.90
57719;DHT22;43561;50.090;18.522;2023-07-08T04:35:15;18.70;99.90
57719;DHT22;43561;50.090;18.522;2023-07-08T04:45:17;19.50;99.90
57719;DHT22;43561;50.090;18.522;2023-07-08T04:55:19;20.30;99.90
57719;DHT22;43561;50.090;18.522;2023-07-08T05:05:21;21.50;99.90
57719;DHT22;43561;50.090;18.522;2023-07-08T05:15:24;22.10;96.00
57719;DHT22;43561;50.090;18.522;2023-07-08T05:25:26;23.00;86.40
57719;DHT22;43561;50.090;18.522;2023-07-08T05:35:28;23.60;82.10
57719;DHT22;43561;50.090;18.522;2023-07-08T05:45:30;23.90;74.70
57719;DHT22;43561;50.090;18.522;2023-07-08T05:55:32;24.60;73.00
57719;DHT22;43561;50.090;18.522;2023-07-08T06:05:35;25.60;62.20
57719;DHT22;43561;50.090;18.522;2023-07-08T06:15:38;26.10;61.30
57719;DHT22;43561;50.090;18.522;2023-07-08T06:25:40;26.40;58.80
57719;DHT22;43561;50.090;18.522;2023-07-08T06:35:43;26.70;60.40
57719;DHT22;43561;50.090;18.522;2023-07-08T06:45:45;26.80;58.20
57719;DHT22;43561;50.090;18.522;2023-07-08T06:55:48;26.90;57.20
57719;DHT22;43561;50.090;18.522;2023-07-08T07:05:51;27.50;57.50
57719;DHT22;43561;50.090;18.522;2023-07-08T07:15:53;28.30;57.20
57719;DHT22;43561;50.090;18.522;2023-07-08T07:25:55;28.30;55.60
57719;DHT22;43561;50.090;18.522;2023-07-08T07:35:57;29.10;54.00
57719;DHT22;43561;50.090;18.522;2023-07-08T07:46:00;29.30;52.70
57719;DHT22;43561;50.090;18.522;2023-07-08T07:56:03;29.60;50.70
57719;DHT22;43561;50.090;18.522;2023-07-08T08:06:05;29.90;50.30
57719;DHT22;43561;50.090;18.522;2023-07-08T08:16:07;30.40;47.60
57719;DHT22;43561;50.090;18.522;2023-07-08T08:26:10;29.70;45.90
57719;DHT22;43561;50.090;18.522;2023-07-08T08:36:12;30.10;44.80
57719;DHT22;43561;50.090;18.522;2023-07-08T08:46:25;30.10;45.60
57719;DHT22;43561;50.090;18.522;2023-07-08T08:56:38;30.10;44.30
57719;DHT22;43561;50.090;18.522;2023-07-08T09:06:41;30.30;45.40
57719;DHT22;43561;50.090;18.522;2023-07-08T09:16:56;30.40;44.70
57719;DHT22;43561;50.090;18.522;2023-07-08T09:27:00;29.20;45.40
57719;DHT22;43561;50.090;18.522;2023-07-08T09:37:03;30.00;45.60
57719;DHT22;43561;50.090;18.522;2023-07-08T09:47:25;31.10;43.90
57719;DHT22;43561;50.090;18.522;2023-07-08T09:57:30;29.90;44.00
57719;DHT22;43561;50.090;18.522;2023-07-08T10:07:32;29.70;44.40
57719;DHT22;43561;50.090;18.522;2023-07-08T10:17:37;30.30;43.90
57719;DHT22;43561;50.090;18.522;2023-07-08T10:58:44;29.90;43.30
57719;DHT22;43561;50.090;18.522;2023-07-08T11:08:51;30.20;44.20
57719;DHT22;43561;50.090;18.522;2023-07-08T11:19:02;29.80;42.60
57719;DHT22;43561;50.090;18.522;2023-07-08T11:29:21;30.00;42.50
57719;DHT22;43561;50.090;18.522;2023-07-08T11:49:40;29.50;43.20
57719;DHT22;43561;50.090;18.522;2023-07-08T11:59:46;30.10;43.00
57719;DHT22;43561;50.090;18.522;2023-07-08T12:09:58;28.90;42.20
57719;DHT22;43561;50.090;18.522;2023-07-08T12:20:02;29.00;41.10
57719;DHT22;43561;50.090;18.522;2023-07-08T12:30:04;29.20;42.20
57719;DHT22;43561;50.090;18.522;2023-07-08T12:40:10;29.30;42.30
57719;DHT22;43561;50.090;18.522;2023-07-08T12:50:13;28.40;41.60
57719;DHT22;43561;50.090;18.522;2023-07-08T13:00:28;28.60;42.80
57719;DHT22;43561;50.090;18.522;2023-07-08T13:10:33;28.40;41.90
57719;DHT22;43561;50.090;18.522;2023-07-08T13:20:36;29.00;42.40
57719;DHT22;43561;50.090;18.522;2023-07-08T13:30:38;28.50;43.20
57719;DHT22;43561;50.090;18.522;2023-07-08T13:40:47;28.40;41.60
57719;DHT22;43561;50.090;18.522;2023-07-08T13:50:58;28.20;41.00
57719;DHT22;43561;50.090;18.522;2023-07-08T14:01:08;28.50;42.10
57719;DHT22;43561;50.090;18.522;2023-07-08T14:11:10;27.80;41.90
57719;DHT22;43561;50.090;18.522;2023-07-08T14:21:12;28.10;41.40
57719;DHT22;43561;50.090;18.522;2023-07-08T14:31:20;28.20;41.30
57719;DHT22;43561;50.090;18.522;2023-07-08T14:41:23;28.00;41.80
57719;DHT22;43561;50.090;18.522;2023-07-08T14:51:25;28.00;41.40
57719;DHT22;43561;50.090;18.522;2023-07-08T15:01:28;28.20;38.40
57719;DHT22;43561;50.090;18.522;2023-07-08T15:11:31;28.10;37.70
57719;DHT22;43561;50.090;18.522;2023-07-08T15:21:33;28.10;38.40
57719;DHT22;43561;50.090;18.522;2023-07-08T15:31:36;27.80;37.30
57719;DHT22;43561;50.090;18.522;2023-07-08T15:41:38;28.10;38.10
57719;DHT22;43561;50.090;18.522;2023-07-08T15:51:41;28.00;38.50
57719;DHT22;43561;50.090;18.522;2023-07-08T16:01:43;27.90;37.00
57719;DHT22;43561;50.090;18.522;2023-07-08T16:11:46;27.60;38.00
57719;DHT22;43561;50.090;18.522;2023-07-08T16:21:48;27.70;38.70
57719;DHT22;43561;50.090;18.522;2023-07-08T16:31:51;27.70;39.20
57719;DHT22;43561;50.090;18.522;2023-07-08T16:41:53;27.60;39.30
57719;DHT22;43561;50.090;18.522;2023-07-08T16:51:56;27.50;39.10
57719;DHT22;43561;50.090;18.522;2023-07-08T17:01:58;27.40;40.00
57719;DHT22;43561;50.090;18.522;2023-07-08T17:12:00;27.20;41.00
57719;DHT22;43561;50.090;18.522;2023-07-08T17:22:02;27.00;41.10
57719;DHT22;43561;50.090;18.522;2023-07-08T17:32:05;26.80;41.70
57719;DHT22;43561;50.090;18.522;2023-07-08T17:42:07;26.60;43.00
57719;DHT22;43561;50.090;18.522;2023-07-08T17:52:10;26.10;46.90
57719;DHT22;43561;50.090;18.522;2023-07-08T18:02:16;26.00;42.50
57719;DHT22;43561;50.090;18.522;2023-07-08T18:12:18;25.90;45.90
57719;DHT22;43561;50.090;18.522;2023-07-08T18:22:20;25.50;48.20
57719;DHT22;43561;50.090;18.522;2023-07-08T18:32:22;24.90;50.70
57719;DHT22;43561;50.090;18.522;2023-07-08T18:42:25;24.60;52.00
57719;DHT22;43561;50.090;18.522;2023-07-08T18:52:27;24.20;52.20
57719;DHT22;43561;50.090;18.522;2023-07-08T19:02:34;24.10;52.30
57719;DHT22;43561;50.090;18.522;2023-07-08T19:12:38;23.60;55.10
57719;DHT22;43561;50.090;18.522;2023-07-08T19:22:40;23.30;56.60
57719;DHT22;43561;50.090;18.522;2023-07-08T19:32:47;22.60;58.10
57719;DHT22;43561;50.090;18.522;2023-07-08T19:42:51;22.60;57.80
57719;DHT22;43561;50.090;18.522;2023-07-08T19:52:55;22.10;58.70
57719;DHT22;43561;50.090;18.522;2023-07-08T20:02:57;21.90;61.00
57719;DHT22;43561;50.090;18.522;2023-07-08T20:13:00;21.50;66.50
57719;DHT22;43561;50.090;18.522;2023-07-08T20:23:02;21.00;82.50
57719;DHT22;43561;50.090;18.522;2023-07-08T20:33:05;20.50;97.00
57719;DHT22;43561;50.090;18.522;2023-07-08T20:43:18;20.40;99.90
57719;DHT22;43561;50.090;18.522;2023-07-08T20:53:21;20.30;99.90
57719;DHT22;43561;50.090;18.522;2023-07-08T21:03:23;19.80;99.90
57719;DHT22;43561;50.090;18.522;2023-07-08T21:13:25;19.40;99.90
57719;DHT22;43561;50.090;18.522;2023-07-08T21:23:27;19.30;99.90
57719;DHT22;43561;50.090;18.522;2023-07-08T21:33:30;18.80;99.90
57719;DHT22;43561;50.090;18.522;2023-07-08T21:43:32;18.60;99.90
57719;DHT22;43561;50.090;18.522;2023-07-08T21:53:36;18.30;99.90
57719;DHT22;43561;50.090;18.522;2023-07-08T22:03:38;18.00;99.90
57719;DHT22;43561;50.090;18.522;2023-07-08T22:13:40;17.60;99.90
57719;DHT22;43561;50.090;18.522;2023-07-08T22:23:42;17.80;99.90
57719;DHT22;43561;50.090;18.522;2023-07-08T22:33:45;17.80;99.90
57719;DHT22;43561;50.090;18.522;2023-07-08T22:43:47;17.80;99.90
57719;DHT22;43561;50.090;18.522;2023-07-08T22:53:49;17.70;99.90
57719;DHT22;43561;50.090;18.522;2023-07-08T23:03:51;17.60;99.90
57719;DHT22;43561;50.090;18.522;2023-07-08T23:13:54;17.50;99.90
57719;DHT22;43561;50.090;18.522;2023-07-08T23:23:56;17.40;99.90
57719;DHT22;43561;50.090;18.522;2023-07-08T23:33:59;17.40;99.90
57719;DHT22;43561;50.090;18.522;2023-07-08T23:44:01;17.40;99.90
